AirNav   TITAN Aviation Fuels
 
 1508 users online  

60MD Walter Reed National Medical Center Heliport
Bethesda, Maryland, USA

GOING TO BETHESDA?


FAA INFORMATION EFFECTIVE 30 DECEMBER 2021

Location

FAA Identifier: 60MD
Lat/Long: 38-59-58.6200N 077-05-44.3700W
38-59.977000N 077-05.739500W
38.9996167,-77.0956583
(estimated)
Elevation: 326 ft. / 99 m (estimated)
From city: 1 mile N of BETHESDA, MD
Time zone: UTC -5 (UTC -4 during Daylight Saving Time)
Zip code: 20814

Heliport Operations

Heliport use: Private use. Permission required prior to landing
Activation date: 07/2013
Control tower: no
ARTCC: WASHINGTON CENTER
FSS: LEESBURG FLIGHT SERVICE STATION
Attendance: UNATNDD
Wind indicator: yes
Segmented circle: no

Heliport Communications

CTAF/UNICOM: 123.05
WX AWOS-3 at CGS (8 nm E): 121.225 (301-864-5497)
WX ASOS at DCA (9 nm S): 132.65 (703-418-1177)
WX AWOS-3PT at GAI (11 nm N): 128.275 (301-977-2971)
WX AWOS-3 at FME (16 nm E): 123.925
WX ASOS at IAD (17 nm W): PHONE 703-661-2990

Nearby radio navigation aids

VOR radial/distance  VOR name  Freq  Var
DCAr351/8.9WASHINGTON VOR/DME111.0009W
ADWr327/15.7ANDREWS VORTAC113.1010W
AMLr085/17.7ARMEL VOR/DME113.5008W
BALr254/22.7BALTIMORE VORTAC115.1011W
OTTr327/24.1NOTTINGHAM VORTAC113.7010W
FDKr160/(28.0)FREDERICK VOR109.0008W
EMIr198/30.2WESTMINSTER VORTAC117.9008W

 
NDB name  Hdg/Dist  Freq  Var  ID
GEORGETOWN027/4.432309WGTN --. - -.
OXONN358/14.433211WDCA -.. -.-. .-
DAVEE011/20.322309WDAA -.. .- .-
ELLICOTT232/22.837111WFND ..-. -. -..

Heliport Services

Runway Information

Helipad H1

Dimensions: 60 x 60 ft. / 18 x 18 m
Surface: concrete
Latitude: 38-59.977000N
Longitude: 077-05.739500W
Elevation: 326.0 ft.
Traffic pattern: leftleft

Heliport Ownership and Management from official FAA records

Ownership: U.S. Navy
Owner: NAVAL SUPPORT ACTIVITY BETHESDA
4655 TAYLOR ROAD
BETHESDA, MD 20889-5600
Phone 301-295-5479
Manager: CARL SAVARD
4655 TAYLOR ROAD
NORFOLK, VA 23507-5600
Phone 301-319-8304

Additional Remarks

NSA BETHESDA ALARM MONITOR CENTER COMM: 301-319-2934.
REQ 10 MIN NTC PRIOR TO ETA.
FOR CD CTC POTOMAC APCH AT 866-599-3874.

Instrument Procedures

There are no published instrument procedures at 60MD.

Some nearby airports with instrument procedures:

KCGS - College Park Airport (8 nm E)
KDCA - Ronald Reagan Washington National Airport (9 nm S)
KGAI - Montgomery County Airpark (11 nm N)
W50 - Davis Airport (15 nm N)
W00 - Freeway Airport (15 nm E)
KADW - Joint Base Andrews (16 nm SE)
KVKX - Potomac Airfield (16 nm SE)
KFME - Tipton Airport (16 nm E)
W32 - Washington Executive Airport/Hyde Field (17 nm SE)
KIAD - Washington Dulles International Airport (17 nm W)
 
Loc | Ops | Rwys | IFR | FBO | Links
Com | Nav | Svcs | Stats | Notes
Aerial photo
No photo
 
Airport distance calculator
Flying to Walter Reed National Medical Center Heliport? Find the distance to fly.

From to 60MD

Sunrise and sunset
Times for 26-Jan-2022
 Local
(UTC-5)
 Zulu
(UTC)
Morning civil twilight06:5211:52
Sunrise07:2112:21
Sunset17:2122:21
Evening civil twilight17:5022:50

Current date and time
Zulu (UTC)  26-Jan-2022 18:06:49
Local (UTC-5)  26-Jan-2022 13:06:49
 
METAR
KCGS 
8nm E 
261755Z AUTO 32004G14KT 10SM CLR M01/M17 A3037 RMK AO1 T10061167 11003 21077
KDCA 
9nm S 
261752Z 35012G18KT 10SM FEW050 FEW150 01/M14 A3039 RMK AO2 SLP289 T00061139 10011 21044 58012
KGAI 
11nm N 
261756Z AUTO 29009KT 240V310 10SM CLR M02/M13 A3036 RMK AO2 SLP302 T10171128 11011 21100 58010 FZRANO
KADW 
15nm SE 
261756Z AUTO 33006KT 10SM CLR M01/M14 A3035 RMK AO2 SLP288 T10111140 11005 21074 58013 $
KFME 
16nm E 
261755Z AUTO 30007KT 10SM CLR 00/M12 A3040 RMK AO1
KIAD 
17nm W 
261752Z 34007KT 10SM CLR M01/M14 A3037 RMK AO2 SLP287 T10111139 10000 21089 58009
KDAA 
17nm S 
261756Z AUTO 30012KT 10SM CLR 01/M14 A3037 RMK AO2 SLP288 T00071145 10010 21070 58015 $
TAF
KDCA 
9nm S 
261720Z 2618/2724 33012G21KT P6SM FEW050 FEW150 FM262300 34005KT P6SM FEW250 FM271100 VRB03KT P6SM FEW250 FM271600 20005KT P6SM FEW250 FM272300 19005KT P6SM FEW100 SCT150
KADW 
15nm SE 
261700Z 2617/2723 34012KT 9999 SCT050 QNH3032INS BECMG 2622/2623 33006KT 9999 SCT050 QNH3038INS BECMG 2713/2714 19005KT 9999 FEW030 QNH3026INS TX00/2619Z TNM08/2711Z
KIAD 
17nm W 
261439Z 2615/2718 36006KT P6SM FEW250 FM261800 33010G18KT P6SM FEW045 FM270000 34007KT P6SM SKC FM270400 00000KT P6SM SKC FM271600 19005KT P6SM SKC
KDAA 
17nm S 
261300Z 2613/2719 VRB06KT 9999 FEW250 QNH3034INS BECMG 2614/2615 33009KT 9999 FEW250 QNH3040INS TEMPO 2615/2623 33010G20KT BECMG 2623/2624 33006KT 9999 SKC QNH3040INS BECMG 2711/2712 VRB06KT 9999 SKC QNH3040INS TX00/2618Z TNM09/2711Z
NOTAMs
Click for the latest NOTAMs
NOTAMs are issued by the DoD/FAA and will open in a separate window not controlled by AirNav.

 

 
 

Would you like to see your business listed on this page?

 If your business provides an interesting product or service to pilots, flight crews, aircraft, or users of the Walter Reed National Medical Center Heliport, you should consider listing it here.  To start the listing process, click on the button below
 
Add a business
 

Other Pages about Walter Reed National Medical Center Heliport

Update a link
 
Copyright © AirNav, LLC. All rights reserved. Privacy Policy  Contact